createdAt,value
2023-08-03T00:01:25.427Z,96145.91
2023-08-03T00:03:54.963Z,96153.69
2023-08-03T00:06:23.108Z,96158.06
2023-08-03T00:08:51.197Z,96163.25
2023-08-03T00:11:19.144Z,96160.47
2023-08-03T00:13:47.080Z,96172.28
2023-08-03T00:16:15.135Z,96169.69
2023-08-03T00:18:43.161Z,96179.44
2023-08-03T00:21:12.525Z,96171.06
2023-08-03T00:23:40.563Z,96176.25
2023-08-03T00:26:08.598Z,96166.84
2023-08-03T00:28:36.635Z,96168.84
2023-08-03T00:31:04.675Z,96167.88
2023-08-03T00:33:31.717Z,96165.28
2023-08-03T00:35:59.637Z,96168.84
2023-08-03T00:38:29.063Z,96169.84
2023-08-03T00:40:57.247Z,96170.81
2023-08-03T00:43:25.265Z,96171.44
2023-08-03T00:45:53.369Z,96164.44
2023-08-03T00:48:21.454Z,96165.28
2023-08-03T00:50:49.479Z,96165.06
2023-08-03T00:53:17.595Z,96169.44
2023-08-03T00:55:46.912Z,96167.03
2023-08-03T00:58:14.976Z,96168.84
2023-08-03T01:00:43.159Z,96172.44
2023-08-03T01:03:11.187Z,96164.66
2023-08-03T01:05:39.239Z,96169.25
2023-08-03T01:08:07.315Z,96160.03
2023-08-03T01:10:35.520Z,96153.25
2023-08-03T01:13:05.308Z,96157.06
2023-08-03T01:15:33.288Z,96153.66
2023-08-03T01:18:01.494Z,96167.25
2023-08-03T01:20:31.152Z,96157.06
2023-08-03T01:23:02.200Z,96158.25
2023-08-03T01:25:30.225Z,96161.66
2023-08-03T01:27:58.222Z,96158.25
2023-08-03T01:30:26.578Z,96160.03
2023-08-03T01:32:54.754Z,96169.25
2023-08-03T01:35:22.968Z,96162.03
2023-08-03T01:37:53.345Z,96165.66
2023-08-03T01:40:22.862Z,96157.66
2023-08-03T01:42:50.811Z,96152.47
2023-08-03T01:45:18.759Z,96148.28
2023-08-03T01:47:46.877Z,96153.25
2023-08-03T01:50:14.888Z,96163.66
2023-08-03T01:52:42.859Z,96162.47
2023-08-03T01:55:11.071Z,96161.28
2023-08-03T01:57:40.359Z,96156.88
2023-08-03T02:00:09.557Z,96163.88
2023-08-03T02:02:37.574Z,96162.47
2023-08-03T02:05:07.515Z,96158.25
2023-08-03T02:07:46.902Z,96160.88
2023-08-03T02:10:16.161Z,96159.28
2023-08-03T02:12:45.537Z,96165.28
2023-08-03T02:15:14.865Z,96165.47
2023-08-03T02:17:43.513Z,96169.06
2023-08-03T02:20:13.171Z,96168.84
2023-08-03T02:22:41.598Z,96169.25
2023-08-03T02:25:10.588Z,96180.03
2023-08-03T02:27:38.690Z,96184.00
2023-08-03T02:30:11.311Z,96174.41
2023-08-03T02:32:40.257Z,96187.16
2023-08-03T02:35:09.533Z,96182.75
2023-08-03T02:37:37.507Z,96188.34
2023-08-03T02:40:09.519Z,96187.13
2023-08-03T02:42:38.218Z,96189.13
2023-08-03T02:45:09.662Z,96182.72
2023-08-03T02:47:37.719Z,96180.69
2023-08-03T02:50:06.691Z,96187.88
2023-08-03T02:52:34.753Z,96185.47
2023-08-03T02:55:02.766Z,96179.28
2023-08-03T02:57:30.724Z,96188.28
2023-08-03T02:59:58.857Z,96181.47
2023-08-03T03:02:28.449Z,96183.28
2023-08-03T03:04:56.478Z,96171.28
2023-08-03T03:07:24.734Z,96174.72
2023-08-03T03:09:52.648Z,96178.28
2023-08-03T03:12:20.642Z,96181.88
2023-08-03T03:14:48.638Z,96172.31
2023-08-03T03:17:17.274Z,96175.06
2023-08-03T03:19:46.601Z,96188.25
2023-08-03T03:22:14.596Z,96171.09
2023-08-03T03:24:42.568Z,96173.53
2023-08-03T03:27:10.583Z,96177.34
2023-08-03T03:29:38.548Z,96177.59
2023-08-03T03:32:07.474Z,96177.59
2023-08-03T03:34:35.502Z,96178.22
2023-08-03T03:37:04.951Z,96185.00
2023-08-03T03:39:32.890Z,96185.22
2023-08-03T03:42:00.919Z,96189.41
2023-08-03T03:44:28.912Z,96198.81
2023-08-03T03:46:57.020Z,96193.81
2023-08-03T03:49:25.064Z,96197.59
2023-08-03T03:51:53.107Z,96178.44
2023-08-03T03:54:22.465Z,96201.22
2023-08-03T03:56:50.413Z,96203.19
2023-08-03T03:59:18.425Z,96199.38
2023-08-03T04:01:46.604Z,96197.75
2023-08-03T04:04:14.671Z,96205.94
2023-08-03T04:06:44.604Z,96212.31
2023-08-03T04:09:12.677Z,96213.31
2023-08-03T04:11:42.112Z,96207.13
2023-08-03T04:14:10.411Z,96210.94
2023-08-03T04:16:38.355Z,96209.75
2023-08-03T04:19:06.277Z,96215.34
2023-08-03T04:21:34.203Z,96215.16
2023-08-03T04:24:02.123Z,96215.16
2023-08-03T04:26:30.054Z,96216.75
2023-08-03T04:28:59.365Z,96211.75
2023-08-03T04:31:28.289Z,96215.78
2023-08-03T04:33:56.253Z,96215.56
2023-08-03T04:36:24.255Z,96213.19
2023-08-03T04:38:52.214Z,96219.19
2023-08-03T04:41:21.438Z,96218.03
2023-08-03T04:43:49.345Z,96225.03
2023-08-03T04:46:18.693Z,96230.81
2023-08-03T04:48:46.675Z,96236.41
2023-08-03T04:51:16.128Z,96246.78
2023-08-03T04:53:45.779Z,96230.38
2023-08-03T04:56:13.846Z,96244.78
2023-08-03T04:58:41.897Z,96247.59
2023-08-03T05:01:10.965Z,96257.00
2023-08-03T05:03:40.343Z,96262.38
2023-08-03T05:06:08.418Z,96252.00
2023-08-03T05:08:36.506Z,96260.38
2023-08-03T05:11:04.511Z,96262.38
2023-08-03T05:13:32.470Z,96271.78
2023-08-03T05:16:00.470Z,96264.00
2023-08-03T05:18:31.439Z,96266.59
2023-08-03T05:21:00.783Z,96262.00
2023-08-03T05:23:28.927Z,96273.59
2023-08-03T05:25:57.331Z,96283.59
2023-08-03T05:28:27.979Z,96273.41
2023-08-03T05:30:55.970Z,96287.00
2023-08-03T05:33:23.932Z,96284.81
2023-08-03T05:35:51.980Z,96267.22
2023-08-03T05:38:21.408Z,96278.84
2023-08-03T05:40:49.437Z,96274.44
2023-08-03T05:43:17.491Z,96281.25
2023-08-03T05:45:50.058Z,96282.47
2023-08-03T05:48:20.205Z,96277.47
2023-08-03T05:50:52.296Z,96277.69
2023-08-03T05:53:21.872Z,96276.34
2023-08-03T05:56:01.895Z,96282.16
2023-08-03T05:58:38.784Z,96280.16
2023-08-03T06:01:08.336Z,96277.31
2023-08-03T06:03:37.970Z,96279.91
2023-08-03T06:06:08.100Z,96280.53
2023-08-03T06:08:38.478Z,96272.97
2023-08-03T06:11:06.991Z,96270.94
2023-08-03T06:13:36.567Z,96283.78
2023-08-03T06:16:08.379Z,96283.56
2023-08-03T06:18:47.973Z,96282.16
2023-08-03T06:21:17.192Z,96276.56
2023-08-03T06:23:50.077Z,96279.38
2023-08-03T06:26:20.355Z,96283.78
2023-08-03T06:28:50.446Z,96284.78
2023-08-03T06:31:20.629Z,96284.59
2023-08-03T06:33:49.510Z,96285.38
2023-08-03T06:36:21.454Z,96296.56
2023-08-03T06:38:53.212Z,96301.78
2023-08-03T06:41:23.398Z,96295.59
2023-08-03T06:43:51.747Z,96306.59
2023-08-03T06:46:20.238Z,96306.59
2023-08-03T06:48:48.839Z,96308.19
2023-08-03T06:51:17.070Z,96308.00
2023-08-03T06:53:47.690Z,96314.19
2023-08-03T06:56:17.056Z,96323.81
2023-08-03T06:58:45.025Z,96327.03
2023-08-03T07:01:13.201Z,96334.63
2023-08-03T07:03:41.467Z,96321.03
2023-08-03T07:06:09.563Z,96342.84
2023-08-03T07:08:37.562Z,96332.25
2023-08-03T07:11:05.602Z,96353.47
2023-08-03T07:13:35.007Z,96333.47
2023-08-03T07:16:09.028Z,96348.50
2023-08-03T07:18:37.660Z,96342.69
2023-08-03T07:21:06.282Z,96340.25
2023-08-03T07:23:35.135Z,96345.78
2023-08-03T07:26:03.356Z,96338.16
2023-08-03T07:28:31.465Z,96344.56
2023-08-03T07:31:00.740Z,96345.38
2023-08-03T07:33:28.768Z,96352.78
2023-08-03T07:35:56.758Z,96352.78
2023-08-03T07:38:24.747Z,96354.03
2023-08-03T07:40:52.823Z,96353.25
2023-08-03T07:43:20.792Z,96353.66
2023-08-03T07:45:51.879Z,96369.09
2023-08-03T07:48:21.444Z,96370.72
2023-08-03T07:50:49.462Z,96373.53
2023-08-03T07:53:17.439Z,96380.53
2023-08-03T07:55:45.382Z,96373.94
2023-08-03T07:58:14.338Z,96382.13
2023-08-03T08:00:42.365Z,96381.94
2023-08-03T08:03:10.396Z,96383.53
2023-08-03T08:05:39.766Z,96379.91
2023-08-03T08:08:07.834Z,96385.72
2023-08-03T08:10:35.896Z,96383.09
2023-08-03T08:13:03.916Z,96400.38
2023-08-03T08:15:31.927Z,96392.34
2023-08-03T08:18:00.132Z,96399.19
2023-08-03T08:20:28.131Z,96398.38
2023-08-03T08:22:57.500Z,96390.31
2023-08-03T08:25:25.773Z,96388.69
2023-08-03T08:27:54.410Z,96395.47
2023-08-03T08:30:22.769Z,96384.75
2023-08-03T08:32:50.818Z,96392.94
2023-08-03T08:35:18.860Z,96388.28
2023-08-03T08:37:46.852Z,96386.88
2023-08-03T08:40:16.210Z,96400.13
2023-08-03T08:42:44.297Z,96387.91
2023-08-03T08:45:12.688Z,96393.72
2023-08-03T08:47:41.082Z,96398.53
2023-08-03T08:56:04.392Z,96421.47
2023-08-03T09:00:45.338Z,96415.28
2023-08-03T09:03:14.792Z,96404.97
2023-08-03T09:08:17.550Z,96418.97
2023-08-03T09:10:54.423Z,96422.88
2023-08-03T09:13:32.644Z,96435.00
2023-08-03T09:16:01.412Z,96440.94
2023-08-03T09:18:31.971Z,96441.59
2023-08-03T09:28:55.512Z,96444.75
2023-08-03T09:31:30.382Z,96446.56
2023-08-03T09:34:01.324Z,96447.94
2023-08-03T09:36:31.507Z,96448.56
2023-08-03T09:44:19.534Z,96458.69
2023-08-03T09:46:50.340Z,96456.53
2023-08-03T09:49:18.630Z,96465.69
2023-08-03T09:55:06.783Z,96456.47
2023-08-03T09:57:31.144Z,96471.09
2023-08-03T10:00:07.214Z,96468.00
2023-08-03T10:02:46.384Z,96461.84
2023-08-03T10:05:21.915Z,96459.06
2023-08-03T10:07:59.444Z,96474.81
2023-08-03T10:10:33.940Z,96466.28
2023-08-03T10:13:06.589Z,96479.13
2023-08-03T10:15:38.050Z,96488.38
2023-08-03T10:18:07.040Z,96475.13
2023-08-03T10:20:36.422Z,96477.16
2023-08-03T10:23:12.264Z,96481.59
2023-08-03T10:25:54.576Z,96476.41
2023-08-03T10:28:25.914Z,96477.22
2023-08-03T10:31:13.061Z,96478.41
2023-08-03T10:34:08.571Z,96480.44
2023-08-03T10:36:46.790Z,96480.66
2023-08-03T10:39:18.067Z,96490.09
2023-08-03T10:41:48.239Z,96494.94
2023-08-03T10:44:28.622Z,96492.53
2023-08-03T10:47:01.245Z,96499.34
2023-08-03T10:49:53.557Z,96491.13
2023-08-03T10:52:30.833Z,96502.19
2023-08-03T10:55:01.086Z,96499.38
2023-08-03T10:57:31.587Z,96503.97
2023-08-03T11:00:04.892Z,96501.72
2023-08-03T11:02:36.047Z,96496.09
2023-08-03T11:05:09.185Z,96495.47
2023-08-03T11:07:40.873Z,96498.03
2023-08-03T11:10:12.517Z,96501.44
2023-08-03T11:12:42.926Z,96499.81
2023-08-03T11:15:18.306Z,96508.06
2023-08-03T11:17:50.900Z,96509.06
2023-08-03T11:20:20.967Z,96510.47
2023-08-03T11:22:49.324Z,96520.31
2023-08-03T11:25:20.984Z,96525.75
2023-08-03T11:27:49.059Z,96517.72
2023-08-03T11:30:21.786Z,96528.38
2023-08-03T11:32:49.873Z,96536.13
2023-08-03T11:35:18.189Z,96516.53
2023-08-03T11:37:46.329Z,96515.78
2023-08-03T11:40:14.427Z,96509.13
2023-08-03T11:42:44.280Z,96512.06
2023-08-03T11:45:14.713Z,96511.06
2023-08-03T11:47:45.666Z,96510.88
2023-08-03T11:50:14.596Z,96518.16
2023-08-03T11:52:42.801Z,96512.41
2023-08-03T11:55:11.425Z,96517.25
2023-08-03T11:58:08.385Z,96514.25
2023-08-03T12:00:36.380Z,96524.19
2023-08-03T12:03:06.604Z,96525.28
2023-08-03T12:06:00.762Z,96517.47
2023-08-03T12:08:43.140Z,96509.25
2023-08-03T12:11:15.794Z,96506.19
2023-08-03T12:16:17.487Z,96515.91
2023-08-03T12:18:50.246Z,96515.38
2023-08-03T12:21:19.146Z,96514.38
2023-08-03T12:23:47.137Z,96526.69
2023-08-03T12:26:15.135Z,96531.00
2023-08-03T12:28:43.092Z,96527.13
2023-08-03T12:31:11.609Z,96535.59
2023-08-03T12:33:39.955Z,96541.59
2023-08-03T12:36:09.439Z,96537.16
2023-08-03T12:38:37.524Z,96535.63
2023-08-03T12:41:05.984Z,96539.97
2023-08-03T12:43:34.534Z,96534.72
2023-08-03T12:46:02.738Z,96538.47
2023-08-03T12:48:30.944Z,96549.25
2023-08-03T12:50:59.060Z,96549.53
2023-08-03T12:53:28.774Z,96548.53
2023-08-03T12:55:56.885Z,96545.34
2023-08-03T12:58:25.031Z,96561.97
2023-08-03T13:00:56.913Z,96561.53
2023-08-03T13:03:25.177Z,96565.47
2023-08-03T13:05:53.731Z,96567.50
2023-08-03T13:08:21.969Z,96564.28
2023-08-03T13:10:51.812Z,96571.44
2023-08-03T13:13:20.115Z,96573.75
2023-08-03T13:15:48.990Z,96588.16
2023-08-03T13:18:17.789Z,96569.59
2023-08-03T13:20:49.374Z,96578.28
2023-08-03T13:23:18.005Z,96588.94
2023-08-03T13:25:46.017Z,96599.13
2023-08-03T13:28:15.393Z,96592.81
2023-08-03T13:30:43.393Z,96598.44
2023-08-03T13:33:11.541Z,96595.72
2023-08-03T13:35:39.576Z,96614.38
2023-08-03T13:38:07.591Z,96601.84
2023-08-03T13:40:35.649Z,96592.09
2023-08-03T13:43:03.986Z,96593.63
2023-08-03T13:45:33.518Z,96602.72
2023-08-03T13:48:01.662Z,96605.56
2023-08-03T13:50:30.224Z,96602.19
2023-08-03T13:52:58.250Z,96611.75
2023-08-03T13:55:26.286Z,96595.88
2023-08-03T14:00:25.206Z,96598.50
2023-08-03T14:02:55.778Z,96606.31
2023-08-03T14:07:55.070Z,96585.97
2023-08-03T14:10:27.236Z,96589.59
2023-08-03T14:12:59.476Z,96605.03
2023-08-03T14:18:47.519Z,96601.72
2023-08-03T14:23:21.748Z,96593.25
2023-08-03T14:25:49.912Z,96590.09
2023-08-03T14:30:48.854Z,96599.72
2023-08-03T14:33:18.395Z,96604.41
2023-08-03T14:35:46.415Z,96607.47
2023-08-03T14:38:14.379Z,96603.28
2023-08-03T14:40:42.325Z,96604.75
2023-08-03T14:43:10.331Z,96604.19
2023-08-03T14:45:46.981Z,96610.00
2023-08-03T14:48:18.979Z,96603.56
2023-08-03T14:50:52.348Z,96605.03
2023-08-03T14:53:20.738Z,96612.66
2023-08-03T14:58:22.844Z,96602.28
2023-08-03T15:00:50.932Z,96589.69
2023-08-03T15:03:19.791Z,96593.59
2023-08-03T15:05:52.109Z,96592.41
2023-08-03T15:08:20.093Z,96591.09
2023-08-03T15:10:50.486Z,96597.84
2023-08-03T15:13:19.655Z,96586.84
2023-08-03T15:15:51.728Z,96582.09
2023-08-03T15:18:20.729Z,96587.84
2023-08-03T15:23:24.452Z,96585.22
2023-08-03T15:26:00.884Z,96594.88
2023-08-03T15:31:03.649Z,96596.03
2023-08-03T15:33:35.078Z,96599.34
2023-08-03T15:36:09.613Z,96596.03
2023-08-03T15:38:42.340Z,96588.66
2023-08-03T15:41:13.700Z,96599.22
2023-08-03T15:43:44.494Z,96598.41
2023-08-03T15:46:20.074Z,96598.63
2023-08-03T15:51:24.374Z,96597.19
2023-08-03T15:54:04.314Z,96593.13
2023-08-03T15:56:33.670Z,96598.63
2023-08-03T15:59:02.136Z,96604.28
2023-08-03T16:01:30.319Z,96607.78
2023-08-03T16:03:58.413Z,96606.19
2023-08-03T16:06:28.114Z,96604.28
2023-08-03T16:08:56.203Z,96607.66
2023-08-03T16:11:39.826Z,96611.16
2023-08-03T16:14:12.210Z,96602.03
2023-08-03T16:16:40.521Z,96604.28
2023-08-03T16:19:08.594Z,96611.09
2023-08-03T16:21:38.741Z,96605.00
2023-08-03T16:24:07.038Z,96609.97
2023-08-03T16:26:35.436Z,96622.63
2023-08-03T16:29:03.523Z,96605.75
2023-08-03T16:31:38.309Z,96599.72
2023-08-03T16:34:11.920Z,96598.41
2023-08-03T16:36:42.787Z,96611.66
2023-08-03T16:39:11.565Z,96601.09
2023-08-03T16:41:39.897Z,96600.94
2023-08-03T16:44:07.958Z,96607.25
2023-08-03T16:46:37.041Z,96614.16
2023-08-03T16:49:05.481Z,96605.19
2023-08-03T16:51:33.530Z,96610.34
2023-08-03T16:54:02.947Z,96606.19
2023-08-03T16:56:30.925Z,96603.41
2023-08-03T16:58:58.925Z,96600.03
2023-08-03T17:01:27.472Z,96608.31
2023-08-03T17:03:55.517Z,96597.41
2023-08-03T17:06:24.636Z,96618.50
2023-08-03T17:08:52.773Z,96611.25
2023-08-03T17:11:22.169Z,96609.50
2023-08-03T17:13:50.164Z,96612.34
2023-08-03T17:16:18.242Z,96612.41
2023-08-03T17:18:46.395Z,96636.84
2023-08-03T17:21:14.492Z,96628.63
2023-08-03T17:23:42.536Z,96634.72
2023-08-03T17:26:10.600Z,96634.91
2023-08-03T17:28:41.936Z,96633.13
2023-08-03T17:31:12.019Z,96641.03
2023-08-03T17:33:40.244Z,96625.16
2023-08-03T17:36:12.034Z,96647.25
2023-08-03T17:38:40.473Z,96640.88
2023-08-03T17:41:08.615Z,96640.88
2023-08-03T17:43:36.591Z,96647.31
2023-08-03T17:46:08.685Z,96650.94
2023-08-03T17:48:37.061Z,96650.75
2023-08-03T17:51:10.485Z,96655.38
2023-08-03T17:53:40.872Z,96651.56
2023-08-03T17:56:10.231Z,96655.59
2023-08-03T17:58:40.214Z,96651.78
2023-08-03T18:01:18.527Z,96663.47
2023-08-03T18:03:46.894Z,96659.44
2023-08-03T18:06:17.717Z,96662.69
2023-08-03T18:08:46.229Z,96675.16
2023-08-03T18:11:16.286Z,96671.13
2023-08-03T18:13:45.387Z,96684.59
2023-08-03T18:16:16.086Z,96675.94
2023-08-03T18:18:47.867Z,96669.91
2023-08-03T18:21:17.728Z,96672.13
2023-08-03T18:23:47.316Z,96668.31
2023-08-03T18:26:15.559Z,96675.13
2023-08-03T18:28:43.753Z,96681.94
2023-08-03T18:31:13.331Z,96687.97
2023-08-03T18:33:42.990Z,96683.56
2023-08-03T18:36:13.368Z,96687.19
2023-08-03T18:38:43.775Z,96686.38
2023-08-03T18:41:15.319Z,96699.63
2023-08-03T18:43:47.078Z,96710.06
2023-08-03T18:46:17.474Z,96695.78
2023-08-03T18:48:47.547Z,96704.19
2023-08-03T18:51:19.560Z,96699.38
2023-08-03T18:53:49.098Z,96707.59
2023-08-03T18:56:19.641Z,96712.44
2023-08-03T18:58:50.074Z,96710.38
2023-08-03T19:01:18.430Z,96720.38
2023-08-03T19:03:50.045Z,96728.59
2023-08-03T19:06:19.340Z,96725.78
2023-08-03T19:08:48.057Z,96737.59
2023-08-03T19:11:17.174Z,96744.78
2023-08-03T19:13:46.540Z,96735.34
2023-08-03T19:16:14.962Z,96744.72
2023-08-03T19:18:44.295Z,96742.72
2023-08-03T19:21:14.354Z,96750.72
2023-08-03T19:23:42.505Z,96744.47
2023-08-03T19:26:13.572Z,96752.47
2023-08-03T19:28:41.592Z,96755.47
2023-08-03T19:31:09.632Z,96758.28
2023-08-03T19:33:38.576Z,96756.06
2023-08-03T19:36:07.242Z,96757.44
2023-08-03T19:38:36.566Z,96752.63
2023-08-03T19:41:07.055Z,96753.00
2023-08-03T19:43:35.158Z,96748.97
2023-08-03T19:46:09.715Z,96756.97
2023-08-03T19:48:37.692Z,96756.13
2023-08-03T20:06:15.444Z,96774.31
2023-08-03T20:08:48.429Z,96767.41
2023-08-03T20:11:17.220Z,96770.59
2023-08-03T20:16:41.720Z,96776.91
2023-08-03T20:19:06.758Z,96783.47
2023-08-03T20:21:41.329Z,96772.47
2023-08-03T20:24:11.321Z,96772.84
2023-08-03T20:29:20.769Z,96779.19
2023-08-03T20:31:50.436Z,96781.50
2023-08-03T20:34:18.768Z,96790.66
2023-08-03T20:36:47.154Z,96797.88
2023-08-03T20:42:42.369Z,96805.78
2023-08-03T20:49:52.622Z,96806.25
2023-08-03T20:52:20.724Z,96814.41
2023-08-03T20:54:50.331Z,96822.56
2023-08-03T20:57:19.787Z,96822.66
2023-08-03T20:59:47.997Z,96826.97
2023-08-03T21:02:16.140Z,96821.34
2023-08-03T21:07:17.298Z,96816.44
2023-08-03T21:10:50.397Z,96820.31
2023-08-03T21:12:34.966Z,96822.81
2023-08-03T21:15:03.258Z,96821.28
2023-08-03T21:17:32.514Z,96821.41
2023-08-03T21:20:01.679Z,96824.25
2023-08-03T21:22:30.153Z,96826.75
2023-08-03T21:24:58.315Z,96827.59
2023-08-03T21:27:26.412Z,96826.38
2023-08-03T21:29:55.866Z,96816.47
2023-08-03T21:32:24.054Z,96819.44
2023-08-03T21:34:52.207Z,96809.41
2023-08-03T21:37:26.295Z,96807.00
2023-08-03T21:39:54.768Z,96818.88
2023-08-03T21:42:22.941Z,96826.06
2023-08-03T21:44:52.286Z,96829.97
2023-08-03T21:47:21.840Z,96832.56
2023-08-03T21:49:51.790Z,96836.66
2023-08-03T21:52:19.932Z,96831.56
2023-08-03T21:54:48.212Z,96833.53
2023-08-03T21:57:16.303Z,96833.06
2023-08-03T21:59:44.459Z,96830.81
2023-08-03T22:02:12.590Z,96837.97
2023-08-03T22:04:42.116Z,96847.72
2023-08-03T22:07:10.201Z,96860.22
2023-08-03T22:09:38.324Z,96870.44
2023-08-03T22:12:07.585Z,96861.34
2023-08-03T22:14:35.725Z,96860.47
2023-08-03T22:17:04.052Z,96857.50
2023-08-03T22:19:32.297Z,96850.53
2023-08-03T22:22:01.734Z,96845.34
2023-08-03T22:24:29.857Z,96848.94
2023-08-03T22:26:57.988Z,96861.91
2023-08-03T22:29:26.082Z,96874.22
2023-08-03T22:31:54.182Z,96885.59
2023-08-03T22:34:22.300Z,96903.13
2023-08-03T22:36:50.408Z,96915.47
2023-08-03T22:39:19.851Z,96913.03
2023-08-03T22:41:48.254Z,96919.03
2023-08-03T22:44:16.542Z,96934.25
2023-08-03T22:46:44.744Z,96929.06
2023-08-03T22:49:12.876Z,96944.19
2023-08-03T22:51:40.996Z,96947.13
2023-08-03T22:54:09.152Z,96939.38
2023-08-03T22:56:38.650Z,96936.31
2023-08-03T22:59:06.801Z,96929.34
2023-08-03T23:01:34.937Z,96916.72
2023-08-03T23:04:03.176Z,96912.31
2023-08-03T23:06:31.390Z,96912.31
2023-08-03T23:08:59.354Z,96899.06
2023-08-03T23:11:27.528Z,96897.44
2023-08-03T23:13:59.803Z,96895.81
2023-08-03T23:16:28.072Z,96906.19
2023-08-03T23:18:56.302Z,96913.00
2023-08-03T23:21:24.336Z,96902.97
2023-08-03T23:23:52.529Z,96906.53
2023-08-03T23:26:21.005Z,96908.16
2023-08-03T23:28:48.966Z,96907.03
2023-08-03T23:31:18.347Z,96915.78
2023-08-03T23:33:46.852Z,96919.69
2023-08-03T23:36:14.944Z,96929.13
2023-08-03T23:38:42.931Z,96933.53
2023-08-03T23:41:10.910Z,96928.72
2023-08-03T23:43:39.023Z,96934.91
2023-08-03T23:46:07.076Z,96941.91
2023-08-03T23:48:36.460Z,96957.97
2023-08-03T23:51:04.566Z,96964.94
2023-08-03T23:53:32.547Z,96959.31
2023-08-03T23:56:00.499Z,96964.00
2023-08-03T23:58:28.440Z,96973.25
